Time;durP1;ratioP1;P1;durP2;ratioP2;P2;SDS_P1;SDS_P2;PMS_P1;PMS_P2;Temp;Humidity;BMP_temperature;BMP_pressure;BME280_temperature;BME280_humidity;BME280_pressure;Samples;Min_cycle;Max_cycle;Signal;HPM_P1;HPM_P2
2022/05/24 00:01:23;;;;;;;15.23;7.68;;;;;;;13.75;100.00;100032.63;5003756;28;20047;-66
2022/05/24 00:03:49;;;;;;;15.52;7.70;;;;;;;13.75;100.00;100037.09;5013329;28;20392;-62
2022/05/24 00:06:15;;;;;;;14.50;7.70;;;;;;;13.74;100.00;100028.25;5011626;28;20033;-63
2022/05/24 00:08:41;;;;;;;12.90;7.03;;;;;;;13.77;100.00;100029.84;5031269;28;20032;-63
2022/05/24 00:11:06;;;;;;;13.23;7.15;;;;;;;13.77;100.00;100035.16;5030961;28;20042;-63
2022/05/24 00:13:31;;;;;;;13.05;6.60;;;;;;;13.74;100.00;100020.25;5031016;28;20025;-63
2022/05/24 00:15:57;;;;;;;15.52;6.85;;;;;;;13.74;100.00;100024.75;5000178;28;20468;-63
2022/05/24 00:18:26;;;;;;;14.80;5.97;;;;;;;13.70;100.00;100026.78;5018378;28;20040;-63
2022/05/24 00:20:54;;;;;;;14.30;6.68;;;;;;;13.68;100.00;100026.06;5025637;28;20052;-63
2022/05/24 00:23:21;;;;;;;11.95;5.20;;;;;;;13.69;100.00;100029.53;5022178;28;20040;-63
2022/05/24 00:25:50;;;;;;;15.68;5.05;;;;;;;13.66;100.00;100030.63;5024718;28;20038;-63
2022/05/24 00:28:16;;;;;;;15.93;4.30;;;;;;;13.64;100.00;100035.19;5009436;28;20385;-62
2022/05/24 00:30:44;;;;;;;12.00;4.78;;;;;;;13.60;100.00;100015.91;5005347;28;20075;-63
2022/05/24 00:33:10;;;;;;;19.52;5.70;;;;;;;13.62;100.00;100022.94;5030985;28;20060;-63
2022/05/24 00:35:36;;;;;;;15.13;4.55;;;;;;;13.59;100.00;100016.03;5013358;28;20026;-63
2022/05/24 00:38:01;;;;;;;19.13;5.35;;;;;;;13.60;100.00;100028.38;5007259;28;20037;-63
2022/05/24 00:40:38;;;;;;;16.70;4.78;;;;;;;13.61;100.00;100030.09;5021386;28;20543;-63
2022/05/24 00:43:09;;;;;;;12.65;4.50;;;;;;;13.57;100.00;100012.66;5013749;28;20026;-63
2022/05/24 00:45:40;;;;;;;;;;;;;;;13.54;100.00;100011.06;5025326;28;20021;-63
2022/05/24 00:48:13;;;;;;;17.10;6.00;;;;;;;13.47;100.00;100007.13;5012554;28;19913;-63
2022/05/24 00:50:43;;;;;;;18.27;6.32;;;;;;;13.46;100.00;100000.09;5016330;28;20026;-63
2022/05/24 00:53:22;;;;;;;17.77;6.70;;;;;;;13.49;100.00;99988.38;5009892;28;20029;-63
2022/05/24 00:56:01;;;;;;;16.13;7.38;;;;;;;13.48;100.00;100003.50;5006384;28;20413;-64
2022/05/24 00:58:38;;;;;;;16.20;8.05;;;;;;;13.47;100.00;100022.25;5019754;28;20118;-64
2022/05/24 01:01:18;;;;;;;19.45;9.52;;;;;;;13.43;100.00;100021.59;5016210;28;20026;-62
2022/05/24 01:03:44;;;;;;;19.58;9.68;;;;;;;13.42;100.00;100035.84;5026341;28;20063;-63
2022/05/24 01:06:09;;;;;;;17.95;8.90;;;;;;;13.41;100.00;100036.81;5001876;28;20037;-63
2022/05/24 01:08:35;;;;;;;19.35;8.57;;;;;;;13.44;100.00;100036.59;5030580;28;20033;-64
2022/05/24 01:11:02;;;;;;;17.85;8.52;;;;;;;13.43;100.00;100035.72;5016454;28;20040;-64
2022/05/24 01:13:30;;;;;;;18.25;7.55;;;;;;;13.42;100.00;100034.03;5030404;28;20513;-63
2022/05/24 01:15:56;;;;;;;17.42;8.20;;;;;;;13.35;100.00;100035.41;5015107;28;20026;-63
2022/05/24 01:18:26;;;;;;;18.40;8.20;;;;;;;13.36;100.00;100039.75;5015635;28;21774;-64
2022/05/24 01:20:56;;;;;;;17.67;8.32;;;;;;;13.33;100.00;100031.97;5026738;28;20476;-63
2022/05/24 01:23:27;;;;;;;14.32;8.00;;;;;;;13.30;100.00;100028.69;5032086;28;20034;-63
2022/05/24 01:25:56;;;;;;;18.00;8.93;;;;;;;13.27;100.00;100024.44;5028882;28;20024;-63
2022/05/24 01:28:37;;;;;;;15.40;8.48;;;;;;;13.23;100.00;100025.59;5031047;28;20059;-63
2022/05/24 01:31:04;;;;;;;16.50;8.75;;;;;;;13.24;100.00;100017.50;5028855;28;20473;-63
2022/05/24 01:36:15;;;;;;;15.80;8.32;;;;;;;13.30;100.00;100037.53;5028020;28;20208;-62
2022/05/24 01:38:48;;;;;;;17.05;8.30;;;;;;;13.26;100.00;100025.38;5031473;28;20038;-63
2022/05/24 01:41:19;;;;;;;14.40;7.68;;;;;;;13.25;100.00;100029.84;5029550;28;20026;-64
2022/05/24 01:43:48;;;;;;;18.70;7.57;;;;;;;13.23;100.00;100025.59;5025673;28;20469;-64
2022/05/24 01:46:17;;;;;;;17.38;7.72;;;;;;;13.23;100.00;100023.78;5031167;28;20504;-64
2022/05/24 01:49:07;;;;;;;15.98;8.10;;;;;;;13.14;100.00;100016.44;5030977;28;20469;-64
2022/05/24 01:51:38;;;;;;;17.55;8.32;;;;;;;13.13;100.00;100014.75;5031096;28;20025;-64
2022/05/24 01:54:07;;;;;;;20.75;8.73;;;;;;;13.16;100.00;100013.69;5012718;28;20060;-64
2022/05/24 01:56:50;;;;;;;20.88;9.25;;;;;;;13.12;100.00;100007.75;5029608;28;20025;-63
2022/05/24 01:59:19;;;;;;;18.08;9.57;;;;;;;13.15;100.00;100012.00;5021583;28;20527;-63
2022/05/24 02:01:48;;;;;;;21.83;8.88;;;;;;;13.13;100.00;100005.94;5026793;28;20021;-64
2022/05/24 02:04:15;;;;;;;15.95;8.27;;;;;;;13.13;100.00;100009.44;5012378;28;20497;-63
2022/05/24 02:06:41;;;;;;;27.80;9.82;;;;;;;13.10;100.00;100007.81;5028731;28;20025;-65
2022/05/24 02:09:08;;;;;;;17.80;10.05;;;;;;;13.07;100.00;100009.88;5030260;28;20029;-63
2022/05/24 02:11:34;;;;;;;19.02;10.27;;;;;;;13.05;100.00;100012.63;5012824;28;20032;-64
2022/05/24 02:14:14;;;;;;;18.67;10.65;;;;;;;13.09;100.00;100008.81;5024358;28;20692;-62
2022/05/24 02:16:49;;;;;;;18.88;9.52;;;;;;;13.07;100.00;100009.88;5027050;28;20013;-63
2022/05/24 02:19:16;;;;;;;20.35;9.48;;;;;;;13.05;100.00;100009.13;5026926;28;20048;-64
2022/05/24 02:21:45;;;;;;;20.75;10.38;;;;;;;13.07;100.00;100007.22;5028075;28;20025;-64
2022/05/24 02:24:19;;;;;;;18.95;9.77;;;;;;;13.10;100.00;100007.00;5014005;28;20032;-63
2022/05/24 02:26:46;;;;;;;20.67;10.02;;;;;;;13.14;100.00;100010.28;4999778;28;20033;-63
2022/05/24 02:29:12;;;;;;;18.65;10.20;;;;;;;13.08;100.00;100012.41;5032684;28;20111;-63
2022/05/24 02:31:38;;;;;;;19.70;10.27;;;;;;;13.11;100.00;100003.38;5032452;28;20065;-63
2022/05/24 02:34:03;;;;;;;18.83;10.40;;;;;;;13.16;100.00;99987.97;5029809;28;20037;-63
2022/05/24 02:36:29;;;;;;;19.95;11.00;;;;;;;13.21;100.00;99987.63;5030307;28;20025;-63
2022/05/24 02:38:54;;;;;;;21.02;10.40;;;;;;;13.21;100.00;99998.25;5021397;28;20503;-64
2022/05/24 02:41:28;;;;;;;19.02;10.90;;;;;;;13.17;100.00;99994.13;5030483;28;20481;-64
2022/05/24 02:43:58;;;;;;;25.40;11.10;;;;;;;13.15;100.00;99999.56;4999981;28;20029;-63
2022/05/24 02:46:25;;;;;;;22.98;10.32;;;;;;;13.15;100.00;100002.22;5028647;28;20029;-64
2022/05/24 02:48:51;;;;;;;17.08;10.20;;;;;;;13.13;100.00;100000.63;5023752;28;20026;-64
2022/05/24 02:51:17;;;;;;;20.98;9.75;;;;;;;13.11;100.00;100008.69;5031346;28;20357;-64
2022/05/24 02:53:44;;;;;;;20.88;9.98;;;;;;;13.07;100.00;100007.22;5002877;28;20504;-63
2022/05/24 02:56:10;;;;;;;20.60;10.20;;;;;;;13.08;100.00;100012.41;5032378;28;20029;-64
2022/05/24 02:58:37;;;;;;;18.77;8.88;;;;;;;13.01;100.00;100010.28;5013422;28;20122;-64
2022/05/24 03:01:04;;;;;;;17.98;9.85;;;;;;;12.96;100.00;100007.94;5011038;28;20033;-64
2022/05/24 03:03:29;;;;;;;22.10;9.23;;;;;;;12.92;100.00;100009.09;5029799;28;20542;-65
2022/05/24 03:05:55;;;;;;;15.13;7.60;;;;;;;12.90;100.00;100008.34;5006959;28;20029;-64
2022/05/24 03:11:05;;;;;;;13.70;6.57;;;;;;;12.93;100.00;100014.31;5016568;28;20044;-63
2022/05/24 03:16:16;;;;;;;19.55;5.93;;;;;;;12.88;100.00;100007.63;5020588;28;20171;-64
2022/05/24 03:18:42;;;;;;;17.33;5.47;;;;;;;12.86;100.00;100010.34;5032050;28;20116;-64
2022/05/24 03:21:09;;;;;;;16.52;5.18;;;;;;;12.86;100.00;100026.28;5014330;28;20025;-64
2022/05/24 03:23:35;;;;;;;18.40;5.22;;;;;;;12.82;100.00;100019.50;5030938;28;20037;-64
2022/05/24 03:26:01;;;;;;;15.57;4.45;;;;;;;12.84;100.00;100017.59;5019484;28;20022;-64
2022/05/24 03:28:27;;;;;;;15.32;4.32;;;;;;;12.82;100.00;100032.78;5027380;28;20112;-63
2022/05/24 03:30:53;;;;;;;9.20;3.40;;;;;;;12.73;100.00;100038.72;5009134;28;20024;-64
2022/05/24 03:33:19;;;;;;;17.17;4.45;;;;;;;12.69;100.00;100031.91;5018213;28;20064;-64
2022/05/24 03:35:44;;;;;;;14.68;3.30;;;;;;;12.67;100.00;100032.00;5009232;28;20030;-63
2022/05/24 03:38:09;;;;;;;11.15;3.10;;;;;;;12.65;100.00;100044.53;5022608;28;20026;-64
2022/05/24 03:40:35;;;;;;;15.90;3.65;;;;;;;12.62;100.00;100042.06;5028963;28;20022;-63
2022/05/24 03:43:01;;;;;;;11.50;3.78;;;;;;;12.58;100.00;100045.88;4997404;28;20497;-64
2022/05/24 03:45:27;;;;;;;8.90;2.95;;;;;;;12.54;100.00;100052.38;5009419;28;20035;-64
2022/05/24 03:47:54;;;;;;;15.68;3.10;;;;;;;12.50;100.00;100054.34;5025685;28;20025;-63
2022/05/24 03:50:20;;;;;;;10.00;2.83;;;;;;;12.52;100.00;100055.13;5014906;28;20029;-63
2022/05/24 03:52:46;;;;;;;11.30;2.97;;;;;;;12.48;100.00;100058.06;5011541;28;20024;-64
2022/05/24 03:55:11;;;;;;;13.90;3.40;;;;;;;12.51;100.00;100073.81;5021506;28;20033;-64
2022/05/24 04:00:24;;;;;;;9.25;2.63;;;;;;;12.55;100.00;100088.59;5018267;28;20503;-64
2022/05/24 04:02:49;;;;;;;14.05;2.83;;;;;;;12.56;100.00;100085.84;5029756;28;20104;-64
2022/05/24 04:05:15;;;;;;;13.80;2.90;;;;;;;12.64;100.00;100085.34;5020278;28;20133;-64
2022/05/24 04:07:41;;;;;;;10.55;2.70;;;;;;;12.68;100.00;100089.47;5014246;28;20056;-64
2022/05/24 04:10:08;;;;;;;13.65;2.85;;;;;;;12.72;100.00;100103.41;5029257;28;20029;-64
2022/05/24 04:12:34;;;;;;;15.32;2.47;;;;;;;12.74;100.00;100098.88;5032226;28;20038;-62
2022/05/24 04:14:59;;;;;;;11.63;2.55;;;;;;;12.74;100.00;100085.59;5010649;28;20557;-64
2022/05/24 04:17:25;;;;;;;12.02;2.58;;;;;;;12.76;100.00;100073.91;5004234;28;20033;-63
2022/05/24 04:19:50;;;;;;;12.60;2.53;;;;;;;12.77;100.00;100086.25;5013695;28;20040;-63
2022/05/24 04:22:15;;;;;;;13.52;2.33;;;;;;;12.81;100.00;100081.56;5026629;28;20034;-64
2022/05/24 04:24:41;;;;;;;9.55;2.78;;;;;;;12.83;100.00;100089.44;5029363;28;20071;-63
2022/05/24 04:27:07;;;;;;;12.02;2.08;;;;;;;12.82;100.00;100088.56;4998061;28;20033;-64
2022/05/24 04:29:33;;;;;;;8.27;2.30;;;;;;;12.81;100.00;100091.34;5025741;28;20528;-64
2022/05/24 04:31:58;;;;;;;9.90;2.90;;;;;;;12.84;100.00;100085.81;5022849;28;20066;-64
2022/05/24 04:34:24;;;;;;;10.50;2.97;;;;;;;12.82;100.00;100087.75;5027182;28;20082;-63
2022/05/24 04:36:49;;;;;;;11.05;4.28;;;;;;;12.81;100.00;100086.88;5027898;28;20009;-64
2022/05/24 04:39:16;;;;;;;16.63;5.75;;;;;;;12.88;100.00;100090.00;5033052;28;20017;-63
2022/05/24 04:44:25;;;;;;;14.45;6.88;;;;;;;12.90;100.00;100098.69;5031852;28;20546;-63
2022/05/24 04:47:09;;;;;;;14.52;5.65;;;;;;;12.86;100.00;100095.38;4999023;28;20108;-64
2022/05/24 04:49:37;;;;;;;15.95;5.65;;;;;;;12.83;100.00;100086.78;5029124;28;20029;-63
2022/05/24 04:52:03;;;;;;;12.07;5.68;;;;;;;12.79;100.00;100088.78;5030811;28;20399;-63
2022/05/24 04:54:29;;;;;;;12.60;6.10;;;;;;;12.80;100.00;100090.50;5030118;28;20033;-63
2022/05/24 04:56:54;;;;;;;13.18;5.63;;;;;;;12.78;100.00;100090.56;5034270;28;20033;-63
2022/05/24 04:59:20;;;;;;;13.38;5.97;;;;;;;12.78;100.00;100092.41;5034224;28;20022;-65
2022/05/24 05:01:45;;;;;;;14.60;5.88;;;;;;;12.76;100.00;100091.63;5024331;28;20033;-64
2022/05/24 05:04:11;;;;;;;11.23;5.47;;;;;;;12.73;100.00;100097.16;5031658;28;20112;-64
2022/05/24 05:06:41;;;;;;;12.93;5.47;;;;;;;12.71;100.00;100101.72;5032520;28;20026;-63
2022/05/24 05:09:09;;;;;;;11.90;5.65;;;;;;;12.64;100.00;100111.06;5002855;28;20067;-65
2022/05/24 05:11:34;;;;;;;15.30;6.00;;;;;;;12.55;100.00;100113.34;5017089;28;20030;-64
2022/05/24 05:13:59;;;;;;;11.70;5.60;;;;;;;12.52;100.00;100112.69;5013513;28;20087;-64
2022/05/24 05:16:25;;;;;;;12.73;5.32;;;;;;;12.40;100.00;100120.47;4992513;28;20098;-64
2022/05/24 05:18:50;;;;;;;11.60;5.10;;;;;;;12.41;100.00;100129.31;5019283;28;20495;-64
2022/05/24 05:21:16;;;;;;;13.40;5.13;;;;;;;12.41;100.00;100134.63;5033303;28;20437;-64
2022/05/24 05:23:41;;;;;;;14.02;5.28;;;;;;;12.39;100.00;100137.38;5016528;28;20056;-64
2022/05/24 05:26:06;;;;;;;13.00;5.10;;;;;;;12.35;100.00;100146.47;4997494;28;20076;-64
2022/05/24 05:28:32;;;;;;;10.60;4.75;;;;;;;12.30;100.00;100129.97;5010456;28;20052;-64
2022/05/24 05:33:41;;;;;;;16.15;5.05;;;;;;;12.34;100.00;100134.16;5016134;28;20116;-62
2022/05/24 05:36:06;;;;;;;11.90;4.88;;;;;;;12.36;100.00;100144.69;5030107;28;20033;-63
2022/05/24 05:38:32;;;;;;;13.27;5.32;;;;;;;12.31;100.00;100152.94;5026171;28;20037;-64
2022/05/24 05:41:00;;;;;;;10.35;5.00;;;;;;;12.28;100.00;100153.97;5030382;28;20044;-63
2022/05/24 05:43:25;;;;;;;11.68;5.45;;;;;;;12.27;100.00;100168.19;5011657;28;20040;-64
2022/05/24 05:45:57;;;;;;;11.18;5.15;;;;;;;12.25;100.00;100158.63;5014847;28;20037;-64
2022/05/24 05:48:22;;;;;;;12.23;5.88;;;;;;;12.40;100.00;100176.25;5026230;28;20021;-64
2022/05/24 05:50:48;;;;;;;13.15;5.80;;;;;;;12.52;100.00;100169.31;5030481;28;20087;-64
2022/05/24 05:53:14;;;;;;;12.07;6.38;;;;;;;12.78;100.00;100172.09;5006154;28;20033;-64
2022/05/24 05:55:43;;;;;;;12.15;6.65;;;;;;;13.09;100.00;100165.63;5020049;28;20108;-64
2022/05/24 05:58:11;;;;;;;14.23;6.75;;;;;;;13.33;100.00;100180.06;5031919;28;20029;-64
2022/05/24 06:00:37;;;;;;;15.70;6.63;;;;;;;13.60;100.00;100174.69;5028408;28;20033;-65
2022/05/24 06:03:03;;;;;;;13.55;6.30;;;;;;;13.69;100.00;100182.03;5033046;28;20025;-64
2022/05/24 06:05:29;;;;;;;10.02;5.93;;;;;;;13.66;100.00;100171.63;5014716;28;20365;-64
2022/05/24 06:07:55;;;;;;;15.15;6.97;;;;;;;13.37;100.00;100193.06;5014502;28;20048;-64
2022/05/24 06:10:20;;;;;;;12.27;6.30;;;;;;;13.09;100.00;100189.56;5024406;28;20152;-65
2022/05/24 06:12:47;;;;;;;12.23;6.70;;;;;;;12.79;100.00;100189.75;5013482;28;20504;-65
2022/05/24 06:15:12;;;;;;;9.30;6.82;;;;;;;12.60;100.00;100198.88;5030366;28;20052;-65
2022/05/24 06:17:49;;;;;;;11.88;6.47;;;;;;;12.41;100.00;100199.19;5021906;28;20393;-66
2022/05/24 06:20:20;;;;;;;14.48;7.07;;;;;;;12.31;100.00;100213.16;5028468;28;20120;-66
2022/05/24 06:22:46;;;;;;;12.43;7.07;;;;;;;12.24;100.00;100210.88;5030880;28;20034;-67
2022/05/24 06:25:12;;;;;;;15.85;7.85;;;;;;;12.13;100.00;100210.69;5028263;28;20654;-67
2022/05/24 06:27:38;;;;;;;13.43;7.22;;;;;;;12.07;100.00;100211.06;5032871;28;20096;-66
2022/05/24 06:30:04;;;;;;;13.48;7.78;;;;;;;12.01;100.00;100224.69;5032970;28;20120;-66
2022/05/24 06:32:30;;;;;;;14.15;7.10;;;;;;;11.98;100.00;100230.19;5032225;28;20121;-67
2022/05/24 06:34:55;;;;;;;11.80;7.03;;;;;;;11.92;100.00;100229.59;5030679;28;20044;-67
2022/05/24 06:37:21;;;;;;;14.70;7.18;;;;;;;11.84;100.00;100237.16;5017680;28;20146;-68
2022/05/24 06:39:47;;;;;;;14.43;7.03;;;;;;;11.69;100.00;100233.63;5015307;28;20041;-69
2022/05/24 06:42:12;;;;;;;11.27;5.95;;;;;;;11.60;100.00;100245.63;4998928;28;20040;-68
2022/05/24 06:44:38;;;;;;;13.57;5.60;;;;;;;11.52;100.00;100244.34;5014963;28;20025;-70
2022/05/24 06:47:04;;;;;;;9.43;5.82;;;;;;;11.47;100.00;100252.56;4998504;28;20033;-70
2022/05/24 06:49:29;;;;;;;9.65;5.80;;;;;;;11.39;100.00;100238.91;5014941;28;20442;-71
2022/05/24 06:51:55;;;;;;;12.90;5.43;;;;;;;11.32;100.00;100252.53;5032871;28;20021;-69
2022/05/24 06:54:20;;;;;;;9.93;4.55;;;;;;;11.29;100.00;100244.75;4998496;28;20108;-69
2022/05/24 06:56:46;;;;;;;9.50;5.18;;;;;;;11.31;100.00;100249.97;5014583;28;20500;-67
2022/05/24 07:04:39;;;;;;;9.73;5.15;;;;;;;11.40;100.00;100252.06;5032705;28;20064;-66
2022/05/24 07:07:05;;;;;;;9.52;4.75;;;;;;;11.45;100.00;100243.88;5014743;28;20474;-67
2022/05/24 07:09:31;;;;;;;7.10;4.65;;;;;;;11.44;100.00;100258.91;5031923;28;20029;-67
2022/05/24 07:11:58;;;;;;;8.15;4.63;;;;;;;11.47;100.00;100261.41;5015002;28;20033;-67
2022/05/24 07:14:24;;;;;;;8.63;5.10;;;;;;;11.63;100.00;100266.63;5031686;28;20030;-67
2022/05/24 07:16:51;;;;;;;8.95;5.50;;;;;;;11.74;100.00;100281.94;5014486;28;20091;-66
2022/05/24 07:19:17;;;;;;;10.07;4.93;;;;;;;11.87;100.00;100273.28;5011790;28;20032;-66
2022/05/24 07:21:42;;;;;;;16.08;5.68;;;;;;;11.83;100.00;100282.34;5024157;28;20021;-66
2022/05/24 07:24:09;;;;;;;7.40;4.43;;;;;;;11.74;100.00;100276.63;5011437;28;20025;-66
2022/05/24 07:26:35;;;;;;;9.93;4.60;;;;;;;11.73;100.00;100287.34;5025815;28;20032;-66
2022/05/24 07:29:00;;;;;;;7.65;3.83;;;;;;;11.64;100.00;100292.22;5027412;28;20021;-66
2022/05/24 07:31:25;;;;;;;6.13;3.13;;;;;;;11.55;100.00;100291.94;5046874;28;20041;-66
2022/05/24 07:33:51;;;;;;;5.28;3.17;;;;;;;11.51;100.00;100295.66;5031660;28;20049;-66
2022/05/24 07:36:16;;;;;;;5.32;2.92;;;;;;;11.48;100.00;100291.41;5014096;28;20029;-66
2022/05/24 07:38:42;;;;;;;5.85;2.92;;;;;;;11.38;100.00;100295.53;5031116;28;20026;-68
2022/05/24 07:46:35;;;;;;;7.82;3.50;;;;;;;11.23;100.00;100307.88;5033674;28;20091;-68
2022/05/24 07:49:01;;;;;;;7.75;3.53;;;;;;;11.33;100.00;100311.72;5013923;28;20026;-67
2022/05/24 07:51:26;;;;;;;9.75;3.55;;;;;;;11.64;100.00;100316.09;5014941;28;20037;-68
2022/05/24 07:53:52;;;;;;;12.95;3.60;;;;;;;12.19;100.00;100316.47;5009238;28;20108;-68
2022/05/24 07:56:18;;;;;;;10.07;3.60;;;;;;;12.56;100.00;100321.38;5012175;28;20030;-68
2022/05/24 07:58:45;;;;;;;3.83;2.10;;;;;;;12.71;100.00;100331.03;5028666;28;20021;-67
2022/05/24 08:01:11;;;;;;;5.28;2.05;;;;;;;12.99;100.00;100334.59;5031001;28;20033;-68
2022/05/24 08:03:38;;;;;;;6.57;1.90;;;;;;;13.05;100.00;100326.25;5030607;28;20041;-67
2022/05/24 08:06:04;;;;;;;4.78;2.08;;;;;;;13.03;100.00;100327.31;5019000;28;20029;-67
2022/05/24 08:08:29;;;;;;;5.07;1.70;;;;;;;13.44;100.00;100316.72;5019488;28;20041;-66
2022/05/24 08:10:55;;;;;;;4.35;1.98;;;;;;;13.68;100.00;100333.81;5031321;28;20036;-66
2022/05/24 08:13:21;;;;;;;3.10;1.70;;;;;;;13.40;100.00;100319.66;5029832;28;20029;-66
2022/05/24 08:15:50;;;;;;;4.43;1.73;;;;;;;12.97;100.00;100351.59;5030409;28;20126;-68
2022/05/24 08:18:15;;;;;;;4.72;2.08;;;;;;;12.78;100.00;100358.91;5013278;28;20037;-67
2022/05/24 08:20:41;;;;;;;4.35;1.80;;;;;;;12.63;100.00;100357.22;5019807;28;20174;-67
2022/05/24 08:23:07;;;;;;;3.97;2.13;;;;;;;12.46;100.00;100355.59;5030852;28;20473;-69
2022/05/24 08:25:33;;;;;;;4.57;2.10;;;;;;;12.48;100.00;100359.03;5031122;28;20036;-68
2022/05/24 08:28:02;;;;;;;6.68;2.17;;;;;;;12.48;100.00;100358.16;4995454;28;20480;-68
2022/05/24 08:30:28;;;;;;;5.70;2.30;;;;;;;12.48;100.00;100366.13;5012988;28;20049;-67
2022/05/24 08:32:56;;;;;;;5.43;2.70;;;;;;;12.32;100.00;100376.81;5013084;28;20606;-68
2022/05/24 08:35:23;;;;;;;6.35;2.80;;;;;;;12.33;100.00;100378.50;5030954;28;20029;-68
2022/05/24 08:37:48;;;;;;;5.47;2.67;;;;;;;12.46;100.00;100374.19;5030957;28;20029;-68
2022/05/24 08:40:16;;;;;;;7.47;2.90;;;;;;;12.94;100.00;100373.91;5013339;28;20029;-68
2022/05/24 08:43:03;;;;;;;7.40;3.10;;;;;;;13.61;100.00;100381.25;5030694;28;20022;-67
2022/05/24 08:48:29;;;;;;;6.80;2.80;;;;;;;15.71;100.00;100379.28;5030059;28;20178;-63
2022/05/24 08:51:07;;;;;;;7.75;3.10;;;;;;;15.79;94.79;100392.06;5010265;28;20535;-65
2022/05/24 08:53:45;;;;;;;6.35;3.00;;;;;;;15.03;99.85;100385.00;5022047;28;20033;-64
2022/05/24 08:56:16;;;;;;;9.95;3.10;;;;;;;14.42;99.78;100400.75;5029968;28;20022;-65
2022/05/24 08:58:46;;;;;;;8.10;3.20;;;;;;;13.83;100.00;100412.63;5013511;28;20487;-65
2022/05/24 09:01:29;;;;;;;7.75;2.88;;;;;;;13.61;100.00;100410.53;5029309;28;20036;-66
2022/05/24 09:03:55;;;;;;;3.33;2.20;;;;;;;13.86;100.00;100407.13;5030548;28;20041;-66
2022/05/24 09:06:31;;;;;;;6.07;2.10;;;;;;;14.89;98.46;100422.47;5030334;28;20036;-65
2022/05/24 09:09:18;;;;;;;5.22;2.05;;;;;;;15.26;94.43;100427.03;5030723;28;20021;-65
2022/05/24 09:12:00;;;;;;;3.20;1.75;;;;;;;14.90;95.97;100421.50;5031084;28;20646;-65
2022/05/24 09:14:58;;;;;;;4.25;2.00;;;;;;;14.32;97.08;100421.84;5029901;28;20421;-65
2022/05/24 09:17:54;;;;;;;5.22;2.40;;;;;;;14.03;99.58;100435.28;5031001;28;20034;-65
2022/05/24 09:20:36;;;;;;;4.90;2.13;;;;;;;13.58;100.00;100439.97;5029433;28;20063;-66
2022/05/24 09:23:06;;;;;;;7.13;2.30;;;;;;;13.40;100.00;100448.19;5030718;28;20025;-66
2022/05/24 09:25:32;;;;;;;6.97;2.50;;;;;;;13.18;100.00;100453.94;5031762;28;20029;-62
2022/05/24 09:27:57;;;;;;;6.90;2.25;;;;;;;13.03;100.00;100458.41;5034193;28;20021;-66
2022/05/24 09:30:28;;;;;;;7.57;2.70;;;;;;;13.05;100.00;100459.16;5033065;28;20029;-65
2022/05/24 09:33:18;;;;;;;9.05;2.60;;;;;;;13.07;100.00;100469.72;5032567;28;20045;-65
2022/05/24 09:35:44;;;;;;;6.95;2.70;;;;;;;13.25;100.00;100459.75;5026501;28;20029;-64
2022/05/24 09:38:16;;;;;;;5.40;2.70;;;;;;;13.30;100.00;100480.72;5033896;28;20499;-65
2022/05/24 09:40:56;;;;;;;7.75;2.75;;;;;;;13.46;100.00;100485.97;5034254;28;20044;-65
2022/05/24 09:43:35;;;;;;;8.73;3.30;;;;;;;13.66;100.00;100469.63;5033586;28;20472;-65
2022/05/24 09:46:12;;;;;;;7.95;3.00;;;;;;;13.67;99.50;100489.94;5010046;28;20040;-65
2022/05/24 09:48:52;;;;;;;9.48;3.08;;;;;;;13.77;100.00;100485.75;5010560;28;20404;-65
2022/05/24 09:51:24;;;;;;;8.00;3.13;;;;;;;13.86;100.00;100505.59;5053168;28;20060;-65
2022/05/24 09:53:52;;;;;;;6.75;3.03;;;;;;;13.71;99.77;100498.59;5030075;28;20086;-64
2022/05/24 09:56:22;;;;;;;7.68;2.85;;;;;;;13.63;99.95;100504.38;5053750;28;20029;-65
2022/05/24 09:58:56;;;;;;;7.07;2.80;;;;;;;13.64;99.38;100503.44;5053901;28;20021;-64
2022/05/24 10:01:36;;;;;;;5.95;2.92;;;;;;;13.77;100.00;100508.81;5053469;28;20029;-65
2022/05/24 10:04:11;;;;;;;9.27;3.03;;;;;;;14.07;99.85;100511.34;5037036;28;20036;-65
2022/05/24 10:06:36;;;;;;;6.60;3.08;;;;;;;14.42;98.72;100513.50;5033039;28;20052;-64
2022/05/24 10:09:19;;;;;;;5.35;3.00;;;;;;;14.68;95.00;100518.06;5031953;28;20020;-64
2022/05/24 10:12:00;;;;;;;11.82;3.35;;;;;;;14.56;94.03;100519.72;5022017;28;20032;-65
2022/05/24 10:14:55;;;;;;;4.57;2.75;;;;;;;15.10;92.81;100526.75;5033667;28;20036;-63
2022/05/24 10:17:43;;;;;;;6.35;3.35;;;;;;;15.67;90.71;100525.47;5030163;28;20036;-63
2022/05/24 10:20:20;;;;;;;10.00;3.63;;;;;;;16.12;87.83;100519.59;5047145;28;20032;-63
2022/05/24 10:23:29;;;;;;;9.70;3.30;;;;;;;16.31;84.29;100537.78;5021620;28;20033;-65
2022/05/24 10:26:14;;;;;;;6.85;2.63;;;;;;;16.25;81.50;100527.56;5028754;28;20435;-65
2022/05/24 10:28:46;;;;;;;5.00;2.20;;;;;;;17.09;75.55;100540.91;5013062;28;20381;-65
2022/05/24 10:31:36;;;;;;;3.88;2.30;;;;;;;17.55;76.41;100509.69;5031693;28;20041;-65
2022/05/24 10:40:03;;;;;;;5.82;2.17;;;;;;;18.23;74.95;100541.75;5032655;28;20231;-64
2022/05/24 10:42:53;;;;;;;5.03;2.25;;;;;;;19.24;68.06;100541.47;5014777;28;20026;-64
2022/05/24 10:45:49;;;;;;;6.60;1.88;;;;;;;18.69;66.85;100520.16;5032586;28;20473;-64
2022/05/24 10:48:19;;;;;;;5.55;2.10;;;;;;;18.08;69.75;100557.28;5032447;28;20397;-64
2022/05/24 10:50:53;;;;;;;4.10;2.30;;;;;;;17.89;70.01;100557.88;5032965;28;20049;-65
2022/05/24 10:53:35;;;;;;;2.58;1.90;;;;;;;17.62;71.15;100553.75;5031800;28;20021;-65
2022/05/24 10:56:16;;;;;;;5.07;1.50;;;;;;;16.85;70.58;100546.28;5032464;28;20116;-64
2022/05/24 10:58:43;;;;;;;4.47;1.70;;;;;;;16.36;74.47;100573.03;5014853;28;20535;-65
2022/05/24 11:01:33;;;;;;;7.47;1.67;;;;;;;16.03;76.11;100566.53;4998429;28;20033;-65
2022/05/24 11:04:06;;;;;;;6.20;2.10;;;;;;;17.00;75.83;100555.84;4997979;28;20029;-64
2022/05/24 11:06:39;;;;;;;4.75;2.10;;;;;;;17.47;71.82;100561.16;5013821;28;20037;-63
2022/05/24 11:09:17;;;;;;;4.70;2.10;;;;;;;16.74;74.57;100562.28;5032266;28;20017;-63
2022/05/24 11:11:51;;;;;;;9.35;2.33;;;;;;;16.75;76.49;100559.50;5032515;28;20059;-64
2022/05/24 11:14:17;;;;;;;7.53;1.98;;;;;;;17.99;72.73;100564.25;5014281;28;20032;-64
2022/05/24 11:16:46;;;;;;;7.40;2.08;;;;;;;19.19;69.53;100562.47;5031583;28;20029;-64
2022/05/24 11:19:36;;;;;;;6.00;2.03;;;;;;;20.24;65.06;100566.75;5014679;28;20017;-65
2022/05/24 11:22:11;;;;;;;5.35;1.77;;;;;;;20.27;61.70;100567.34;5014712;28;20086;-63
2022/05/24 11:24:53;;;;;;;5.00;1.70;;;;;;;19.98;59.23;100565.41;5031739;28;20429;-64
2022/05/24 11:27:28;;;;;;;4.82;2.20;;;;;;;20.01;56.86;100583.09;5031898;28;20029;-64
2022/05/24 11:29:57;;;;;;;5.20;1.90;;;;;;;19.43;56.90;100546.94;5010966;28;20022;-63
2022/05/24 11:32:44;;;;;;;4.32;1.80;;;;;;;19.33;56.84;100564.81;5031489;28;20051;-63
2022/05/24 11:35:18;;;;;;;4.63;1.60;;;;;;;19.95;55.09;100576.44;5031413;28;20037;-64
2022/05/24 11:37:45;;;;;;;4.50;1.50;;;;;;;20.32;52.46;100588.44;5030541;28;20508;-65
2022/05/24 11:40:34;;;;;;;4.22;1.60;;;;;;;19.26;54.48;100596.72;5029791;28;20083;-64
2022/05/24 11:43:06;;;;;;;4.40;1.80;;;;;;;18.98;58.01;100614.31;5020995;28;20061;-63
2022/05/24 11:45:32;;;;;;;4.32;1.85;;;;;;;19.84;54.36;100564.97;5031197;28;20128;-64
2022/05/24 11:48:06;;;;;;;1.83;1.58;;;;;;;20.24;52.20;100607.09;5030820;28;20512;-64
2022/05/24 11:50:31;;;;;;;5.25;1.83;;;;;;;19.64;52.53;100608.69;5030813;28;20032;-64
2022/05/24 11:53:02;;;;;;;5.53;1.38;;;;;;;19.04;55.23;100599.53;5031629;28;20021;-64
2022/05/24 11:55:55;;;;;;;5.18;1.77;;;;;;;19.12;54.94;100603.25;5030121;28;20025;-64
2022/05/24 11:58:23;;;;;;;6.97;1.70;;;;;;;20.28;54.40;100597.75;5026330;28;20036;-64
2022/05/24 12:01:09;;;;;;;4.70;1.50;;;;;;;20.51;50.00;100600.19;5026397;28;20034;-64
2022/05/24 12:09:22;;;;;;;4.18;1.50;;;;;;;18.66;57.91;100617.81;5030398;28;20431;-64